Time;durP1;ratioP1;P1;durP2;ratioP2;P2;SDS_P1;SDS_P2;PMS_P1;PMS_P2;Temp;Humidity;BMP_temperature;BMP_pressure;BME280_temperature;BME280_humidity;BME280_pressure;Samples;Min_cycle;Max_cycle;Signal;HPM_P1;HPM_P2
2024/02/22 00:00:04;;;;;;;1.20;0.83;;;22.30;75.50;;;;;;4865786;28;20459;-65
2024/02/22 00:02:42;;;;;;;1.10;0.90;;;22.30;75.40;;;;;;4858072;28;21249;-65
2024/02/22 00:05:17;;;;;;;2.20;0.97;;;22.30;75.50;;;;;;4862831;28;20470;-65
2024/02/22 00:08:21;;;;;;;1.07;0.80;;;22.30;75.50;;;;;;4863963;28;20473;-65
2024/02/22 00:10:50;;;;;;;1.10;0.90;;;22.30;75.40;;;;;;4858311;28;20461;-65
2024/02/22 00:13:30;;;;;;;1.20;0.90;;;22.30;75.40;;;;;;4865068;28;20544;-65
2024/02/22 00:16:01;;;;;;;1.37;0.90;;;22.30;75.30;;;;;;4868327;28;21098;-65
2024/02/22 00:18:33;;;;;;;2.13;0.90;;;22.20;75.40;;;;;;4864916;28;20460;-65
2024/02/22 00:21:08;;;;;;;1.10;1.00;;;22.20;75.60;;;;;;4862159;28;20486;-65
2024/02/22 00:23:37;;;;;;;2.17;0.90;;;22.10;75.60;;;;;;4862504;28;20545;-65
2024/02/22 00:26:11;;;;;;;1.10;0.87;;;22.10;75.60;;;;;;4863260;28;20987;-65
2024/02/22 00:28:57;;;;;;;1.30;0.90;;;22.10;75.60;;;;;;4866595;28;20508;-65
2024/02/22 00:31:27;;;;;;;1.43;1.10;;;22.10;75.70;;;;;;4859826;28;20459;-65
2024/02/22 00:33:55;;;;;;;1.07;0.83;;;22.10;75.70;;;;;;4860951;28;20463;-65
2024/02/22 00:36:50;;;;;;;1.27;1.03;;;22.10;75.60;;;;;;4857086;28;25549;-65
2024/02/22 00:39:19;;;;;;;1.00;0.80;;;22.10;75.50;;;;;;4862382;28;20479;-65
2024/02/22 00:41:50;;;;;;;1.00;0.70;;;22.10;75.60;;;;;;4863383;28;22153;-65
2024/02/22 00:44:17;;;;;;;1.10;0.90;;;22.00;75.50;;;;;;4867593;28;20477;-65
2024/02/22 00:46:50;;;;;;;1.40;0.90;;;22.00;75.60;;;;;;4860174;28;20478;-65
2024/02/22 00:49:30;;;;;;;1.73;0.90;;;22.00;75.50;;;;;;4866850;28;20942;-65
2024/02/22 00:52:00;;;;;;;1.23;0.90;;;22.00;75.50;;;;;;4867249;28;21744;-65
2024/02/22 00:54:30;;;;;;;1.03;0.83;;;21.90;75.40;;;;;;4870096;28;21202;-65
2024/02/22 00:57:11;;;;;;;1.40;1.00;;;21.90;75.40;;;;;;4865585;28;20508;-65
2024/02/22 00:59:41;;;;;;;1.02;0.75;;;21.90;75.50;;;;;;4860178;28;20462;-65
2024/02/22 01:02:21;;;;;;;0.87;0.63;;;21.90;75.60;;;;;;4871052;28;20225;-65
2024/02/22 01:04:59;;;;;;;;;;;;;;;;;;;;;
2024/02/22 01:07:38;;;;;;;1.10;0.80;;;21.80;75.60;;;;;;4866443;28;20469;-65
2024/02/22 01:10:17;;;;;;;1.30;0.90;;;21.80;75.70;;;;;;4864619;28;20460;-65
2024/02/22 01:12:47;;;;;;;1.43;0.70;;;21.80;75.70;;;;;;4861056;28;20476;-65
2024/02/22 01:15:17;;;;;;;1.20;0.80;;;21.80;75.80;;;;;;4871520;28;21141;-65
2024/02/22 01:17:48;;;;;;;1.23;0.80;;;21.80;75.90;;;;;;4832137;28;20854;-65
2024/02/22 01:20:30;;;;;;;2.37;0.87;;;21.80;75.90;;;;;;4865685;28;20501;-65
2024/02/22 01:22:58;;;;;;;1.10;0.90;;;21.80;75.90;;;;;;4861450;28;20531;-65
2024/02/22 01:28:12;;;;;;;1.30;0.97;;;21.70;76.20;;;;;;4863737;28;20454;-65
2024/02/22 01:30:45;;;;;;;1.20;1.10;;;21.70;75.70;;;;;;4860822;28;20464;-65
2024/02/22 01:33:20;;;;;;;1.13;0.80;;;21.70;75.70;;;;;;4862650;28;21260;-65
2024/02/22 01:35:50;;;;;;;1.00;0.75;;;21.70;75.80;;;;;;4864275;28;20469;-65
2024/02/22 01:38:22;;;;;;;1.20;0.80;;;21.60;75.60;;;;;;4851440;28;20373;-65
2024/02/22 01:40:50;;;;;;;1.50;1.10;;;21.60;75.80;;;;;;4861314;28;20459;-65
2024/02/22 01:43:35;;;;;;;0.90;0.80;;;21.60;75.70;;;;;;4866618;28;21814;-65
2024/02/22 01:46:08;;;;;;;1.20;0.80;;;21.60;75.70;;;;;;4865629;28;21816;-65
2024/02/22 01:48:39;;;;;;;1.00;0.80;;;21.60;75.60;;;;;;4858856;28;20550;-65
2024/02/22 01:51:18;;;;;;;1.10;1.00;;;21.60;75.80;;;;;;4864454;28;20461;-65
2024/02/22 01:53:49;;;;;;;1.10;0.80;;;21.50;75.80;;;;;;4863909;28;25101;-65
2024/02/22 01:56:20;;;;;;;1.10;0.88;;;21.50;75.70;;;;;;4865938;28;20553;-65
2024/02/22 01:58:53;;;;;;;1.00;0.80;;;21.50;75.90;;;;;;4868937;28;20258;-65
2024/02/22 02:01:27;;;;;;;1.00;0.70;;;21.50;76.00;;;;;;4860458;28;20547;-65
2024/02/22 02:03:59;;;;;;;1.50;0.90;;;21.50;75.90;;;;;;4862991;28;20458;-65
2024/02/22 02:06:31;;;;;;;1.20;0.85;;;21.50;76.00;;;;;;4865880;28;20196;-65
2024/02/22 02:08:57;;;;;;;1.30;0.90;;;21.40;75.80;;;;;;4864671;28;20197;-65
2024/02/22 02:11:32;;;;;;;1.10;0.70;;;21.40;76.00;;;;;;4863490;28;20216;-65
2024/02/22 02:14:14;;;;;;;1.60;1.00;;;21.40;76.00;;;;;;4864683;28;20203;-65
2024/02/22 02:16:46;;;;;;;1.10;0.90;;;21.40;76.20;;;;;;4865294;28;20661;-65
2024/02/22 02:19:24;;;;;;;1.30;0.90;;;21.40;76.20;;;;;;4864127;28;20468;-65
2024/02/22 02:22:07;;;;;;;1.63;0.90;;;21.40;76.20;;;;;;4864261;28;20473;-65
2024/02/22 02:24:59;;;;;;;1.10;0.80;;;21.40;76.20;;;;;;4865359;28;20462;-65
2024/02/22 02:27:43;;;;;;;1.05;0.80;;;21.40;76.20;;;;;;4866478;28;20474;-65
2024/02/22 02:30:12;;;;;;;2.20;1.17;;;21.30;76.20;;;;;;4863048;28;20353;-65
2024/02/22 02:32:41;;;;;;;1.00;0.77;;;21.30;76.10;;;;;;4864955;28;25263;-65
2024/02/22 02:35:24;;;;;;;1.17;0.80;;;21.30;76.20;;;;;;4864629;28;20490;-65
2024/02/22 02:37:57;;;;;;;1.08;0.90;;;21.30;76.10;;;;;;4861721;28;21257;-65
2024/02/22 02:40:30;;;;;;;1.13;0.87;;;21.30;76.30;;;;;;4866137;28;20424;-65
2024/02/22 02:43:12;;;;;;;1.00;0.77;;;21.30;76.30;;;;;;4864967;28;21062;-65
2024/02/22 02:45:44;;;;;;;1.00;0.80;;;21.30;76.30;;;;;;4868343;28;20463;-65
2024/02/22 02:48:11;;;;;;;0.90;0.70;;;21.30;76.10;;;;;;4869854;28;20540;-65
2024/02/22 02:50:45;;;;;;;1.00;0.80;;;21.30;76.30;;;;;;4865994;28;20286;-65
2024/02/22 02:53:18;;;;;;;1.10;0.80;;;21.20;76.30;;;;;;4865072;28;20203;-65
2024/02/22 02:55:55;;;;;;;1.10;0.70;;;21.20;76.20;;;;;;4865107;28;20223;-65
2024/02/22 02:58:28;;;;;;;0.90;0.70;;;21.20;76.40;;;;;;4863225;28;20273;-65
2024/02/22 03:01:01;;;;;;;1.00;0.80;;;21.20;76.30;;;;;;4864586;28;20200;-65
2024/02/22 03:03:38;;;;;;;1.35;0.95;;;21.20;76.20;;;;;;4858683;28;20200;-65
2024/02/22 03:06:07;;;;;;;0.90;0.77;;;21.20;76.30;;;;;;4856037;28;20203;-65
2024/02/22 03:08:35;;;;;;;1.08;0.80;;;21.20;76.20;;;;;;4859985;28;20666;-65
2024/02/22 03:11:19;;;;;;;1.55;1.02;;;21.20;76.30;;;;;;4859614;28;20196;-65
2024/02/22 03:13:52;;;;;;;1.23;0.85;;;21.10;76.40;;;;;;4865207;28;20315;-65
2024/02/22 03:16:19;;;;;;;1.13;0.80;;;21.10;76.30;;;;;;4868708;28;20219;-65
2024/02/22 03:18:55;;;;;;;1.48;0.90;;;21.10;76.20;;;;;;4863069;28;20294;-65
2024/02/22 03:21:22;;;;;;;0.95;0.80;;;21.10;76.30;;;;;;4858126;28;20258;-65
2024/02/22 03:23:52;;;;;;;1.15;0.80;;;21.10;76.70;;;;;;4853298;28;20691;-65
2024/02/22 03:26:25;;;;;;;1.13;0.80;;;21.10;76.70;;;;;;4864630;28;20215;-65
2024/02/22 03:28:52;;;;;;;0.90;0.70;;;21.10;76.80;;;;;;4863666;28;20547;-65
2024/02/22 03:31:25;;;;;;;1.43;0.80;;;21.10;76.80;;;;;;4856600;28;21372;-65
2024/02/22 03:33:59;;;;;;;0.95;0.70;;;21.00;76.70;;;;;;4858943;28;25804;-65
2024/02/22 03:36:49;;;;;;;1.10;0.88;;;21.00;76.50;;;;;;4862365;28;20210;-65
2024/02/22 03:39:20;;;;;;;1.53;1.00;;;21.00;76.70;;;;;;4858316;28;20207;-65
2024/02/22 03:41:50;;;;;;;1.00;0.70;;;21.00;76.60;;;;;;4867623;28;20474;-65
2024/02/22 03:44:19;;;;;;;1.08;0.80;;;21.00;76.60;;;;;;4864393;28;21493;-65
2024/02/22 03:46:49;;;;;;;1.10;0.90;;;21.00;76.60;;;;;;4865806;28;20261;-65
2024/02/22 03:49:16;;;;;;;1.02;0.90;;;21.00;76.80;;;;;;4864843;28;20294;-65
2024/02/22 03:51:48;;;;;;;1.00;0.80;;;21.00;76.50;;;;;;4859536;28;20215;-65
2024/02/22 03:54:17;;;;;;;0.95;0.70;;;21.00;76.50;;;;;;4854450;28;21057;-65
2024/02/22 03:56:47;;;;;;;1.20;0.80;;;21.00;76.60;;;;;;4866436;28;20272;-65
2024/02/22 03:59:32;;;;;;;1.47;1.00;;;21.00;76.60;;;;;;4869132;28;20214;-65
2024/02/22 04:02:03;;;;;;;1.20;0.80;;;20.90;76.50;;;;;;4865851;28;20454;-65
2024/02/22 04:04:39;;;;;;;1.15;0.70;;;20.90;76.50;;;;;;4860832;28;20212;-65
2024/02/22 04:07:13;;;;;;;0.90;0.70;;;20.90;76.50;;;;;;4862521;28;25264;-65
2024/02/22 04:09:51;;;;;;;0.97;0.73;;;20.90;76.70;;;;;;4864747;28;20257;-65
2024/02/22 04:12:20;;;;;;;1.17;0.80;;;20.90;76.70;;;;;;4865037;28;20493;-65
2024/02/22 04:14:51;;;;;;;1.10;0.80;;;20.90;76.60;;;;;;4855447;28;20196;-65
2024/02/22 04:17:23;;;;;;;0.90;0.70;;;20.90;76.70;;;;;;4858428;28;20235;-65
2024/02/22 04:19:55;;;;;;;1.52;0.88;;;20.90;76.80;;;;;;4859471;28;25085;-65
2024/02/22 04:22:25;;;;;;;0.90;0.60;;;20.90;76.70;;;;;;4856271;28;20659;-65
2024/02/22 04:24:57;;;;;;;1.17;0.70;;;20.80;76.70;;;;;;4867624;28;24718;-65
2024/02/22 04:27:29;;;;;;;1.40;0.70;;;20.80;76.70;;;;;;4866981;28;20749;-65
2024/02/22 04:30:05;;;;;;;1.10;0.70;;;20.80;77.20;;;;;;4860964;28;20210;-65
2024/02/22 04:32:37;;;;;;;1.00;0.75;;;20.80;76.70;;;;;;4865547;28;20199;-65
2024/02/22 04:35:10;;;;;;;1.07;0.80;;;20.80;76.70;;;;;;4870099;28;20203;-65
2024/02/22 04:37:47;;;;;;;1.08;0.93;;;20.80;76.60;;;;;;4864159;28;20603;-65
2024/02/22 04:40:36;;;;;;;0.98;0.82;;;20.80;76.70;;;;;;4862449;28;20331;-65
2024/02/22 04:43:09;;;;;;;1.40;0.88;;;20.80;76.80;;;;;;4864110;28;20753;-65
2024/02/22 04:45:42;;;;;;;1.27;0.90;;;20.80;76.70;;;;;;4865653;28;20489;-65
2024/02/22 04:48:09;;;;;;;1.00;0.80;;;20.80;76.80;;;;;;4864273;28;20196;-65
2024/02/22 04:50:51;;;;;;;1.30;0.97;;;20.80;77.10;;;;;;4868527;28;20858;-66
2024/02/22 04:53:31;;;;;;;1.00;0.75;;;20.80;77.10;;;;;;4864928;28;21013;-65
2024/02/22 04:55:58;;;;;;;1.00;0.80;;;20.80;76.90;;;;;;4867721;28;21138;-65
2024/02/22 04:58:32;;;;;;;1.00;0.80;;;20.80;77.00;;;;;;4872499;28;20697;-65
2024/02/22 05:01:04;;;;;;;1.23;0.90;;;20.80;76.90;;;;;;4856057;28;20199;-65
2024/02/22 05:03:31;;;;;;;1.00;0.77;;;20.80;77.00;;;;;;4866198;28;20466;-65
2024/02/22 05:06:01;;;;;;;1.00;0.80;;;20.70;77.00;;;;;;4860332;28;20461;-65
2024/02/22 05:08:35;;;;;;;0.90;0.70;;;20.70;77.00;;;;;;4867483;28;25933;-65
2024/02/22 05:11:06;;;;;;;1.30;0.80;;;20.70;76.90;;;;;;4864491;28;20196;-65
2024/02/22 05:13:37;;;;;;;1.00;0.80;;;20.70;76.80;;;;;;4866598;28;20455;-65
2024/02/22 05:16:40;;;;;;;1.00;0.80;;;20.70;76.90;;;;;;4856578;28;20199;-65
2024/02/22 05:19:15;;;;;;;1.00;0.70;;;20.70;77.10;;;;;;4867979;28;20345;-66
2024/02/22 05:21:42;;;;;;;0.90;0.77;;;20.70;76.80;;;;;;4870042;28;20258;-64
2024/02/22 05:24:13;;;;;;;1.10;0.80;;;20.70;76.90;;;;;;4867340;28;20584;-66
2024/02/22 05:26:48;;;;;;;1.07;0.83;;;20.70;76.80;;;;;;4856180;28;21280;-65
2024/02/22 05:29:24;;;;;;;1.27;0.80;;;20.70;76.90;;;;;;4870032;28;21116;-65
2024/02/22 05:31:55;;;;;;;0.90;0.70;;;20.60;76.70;;;;;;4861657;28;25560;-65
2024/02/22 05:34:24;;;;;;;1.20;0.75;;;20.60;76.90;;;;;;4863228;28;20569;-65
2024/02/22 05:37:01;;;;;;;1.20;0.98;;;20.60;76.70;;;;;;4866969;28;20224;-65
2024/02/22 05:39:29;;;;;;;1.00;0.90;;;20.60;77.00;;;;;;4864993;28;21022;-65
2024/02/22 05:42:02;;;;;;;1.40;0.77;;;20.60;76.90;;;;;;4863170;28;20553;-65
2024/02/22 05:44:33;;;;;;;1.00;0.70;;;20.60;76.90;;;;;;4867699;28;20723;-65
2024/02/22 05:47:09;;;;;;;1.10;0.80;;;20.60;76.90;;;;;;4867062;28;20200;-65
2024/02/22 05:49:44;;;;;;;1.00;0.77;;;20.60;77.10;;;;;;4860916;28;21652;-65
2024/02/22 05:52:18;;;;;;;1.00;0.80;;;20.60;77.30;;;;;;4865265;28;21629;-65
2024/02/22 05:54:53;;;;;;;1.10;0.87;;;20.60;77.30;;;;;;4864211;28;25205;-65
2024/02/22 05:57:32;;;;;;;0.90;0.75;;;20.60;77.10;;;;;;4864468;28;20910;-65
2024/02/22 06:00:06;;;;;;;1.20;0.90;;;20.60;77.20;;;;;;4859465;28;20332;-65
2024/02/22 06:02:34;;;;;;;1.30;0.77;;;20.60;77.30;;;;;;4867098;28;20202;-65
2024/02/22 06:05:07;;;;;;;0.93;0.70;;;20.60;77.10;;;;;;4864990;28;20462;-65
2024/02/22 06:07:36;;;;;;;1.42;0.93;;;20.60;77.30;;;;;;4866102;28;20893;-65
2024/02/22 06:10:03;;;;;;;1.00;0.77;;;20.60;77.10;;;;;;4867899;28;24935;-65
2024/02/22 06:12:32;;;;;;;1.00;0.80;;;20.50;77.30;;;;;;4846079;28;20208;-65
2024/02/22 06:15:03;;;;;;;0.90;0.70;;;20.50;77.10;;;;;;4864630;28;20235;-65
2024/02/22 06:17:39;;;;;;;1.10;0.80;;;20.60;77.10;;;;;;4865584;28;20901;-65
2024/02/22 06:20:21;;;;;;;;;;;;;;;;;;;;;
2024/02/22 06:22:52;;;;;;;1.60;1.08;;;20.50;77.20;;;;;;4866247;28;20238;-65
2024/02/22 06:25:29;;;;;;;1.58;0.80;;;20.40;77.20;;;;;;4857321;28;20205;-65
2024/02/22 06:28:02;;;;;;;1.00;0.70;;;20.50;77.10;;;;;;4865616;28;20211;-65
2024/02/22 06:30:34;;;;;;;0.93;0.70;;;20.50;77.10;;;;;;4861016;28;20211;-65
2024/02/22 06:33:21;;;;;;;1.20;0.90;;;20.50;77.20;;;;;;4863103;28;20713;-65
2024/02/22 06:35:50;;;;;;;1.10;0.90;;;20.50;77.30;;;;;;4867225;28;20592;-64
2024/02/22 06:38:19;;;;;;;0.90;0.70;;;20.50;77.20;;;;;;4870565;28;20541;-65
2024/02/22 06:40:52;;;;;;;0.98;0.70;;;20.40;77.30;;;;;;4857774;28;20327;-65
2024/02/22 06:43:22;;;;;;;1.00;0.65;;;20.40;77.30;;;;;;4864768;28;20874;-65
2024/02/22 06:45:50;;;;;;;1.27;0.70;;;20.40;77.20;;;;;;4864048;28;20753;-65
2024/02/22 06:48:25;;;;;;;1.23;0.70;;;20.50;77.50;;;;;;4863693;28;20211;-65
2024/02/22 06:51:01;;;;;;;0.90;0.60;;;20.40;77.40;;;;;;4848528;28;20195;-65
2024/02/22 06:53:31;;;;;;;1.10;0.80;;;20.50;77.50;;;;;;4865174;28;20211;-66
2024/02/22 06:56:03;;;;;;;3.70;0.70;;;20.20;77.10;;;;;;4887973;28;20503;-65
2024/02/22 06:58:30;;;;;;;1.08;0.88;;;20.40;77.60;;;;;;5001403;28;20535;-65
2024/02/22 07:00:57;;;;;;;1.00;0.80;;;20.40;77.40;;;;;;4997458;28;20605;-65
2024/02/22 07:03:26;;;;;;;0.98;0.68;;;20.40;77.40;;;;;;4998665;28;20679;-65
2024/02/22 07:06:00;;;;;;;1.00;0.70;;;20.40;77.30;;;;;;4998483;28;20204;-65
2024/02/22 07:08:30;;;;;;;0.90;0.60;;;20.40;77.30;;;;;;5001078;28;20235;-65
2024/02/22 07:11:00;;;;;;;1.00;0.70;;;20.40;77.30;;;;;;4995807;28;20652;-65
2024/02/22 07:13:29;;;;;;;1.20;1.10;;;20.40;77.10;;;;;;5000562;28;20208;-66
2024/02/22 07:15:57;;;;;;;0.90;0.80;;;20.40;77.60;;;;;;5000445;28;20604;-66
2024/02/22 07:18:36;;;;;;;1.45;0.80;;;20.40;77.30;;;;;;5000907;28;20530;-65
2024/02/22 07:21:06;;;;;;;1.10;1.00;;;20.40;77.50;;;;;;4997645;28;20573;-66
2024/02/22 07:23:33;;;;;;;1.00;0.70;;;20.40;77.50;;;;;;4999708;28;20286;-65
2024/02/22 07:26:02;;;;;;;1.38;0.80;;;20.40;77.40;;;;;;4999773;28;20211;-65
2024/02/22 07:28:30;;;;;;;1.00;0.70;;;20.40;77.40;;;;;;4997221;28;20269;-65
2024/02/22 07:31:02;;;;;;;1.10;0.65;;;20.30;77.40;;;;;;4994826;28;20200;-65
2024/02/22 07:33:32;;;;;;;1.08;0.80;;;20.30;77.40;;;;;;5002256;28;20730;-65
2024/02/22 07:36:04;;;;;;;1.00;0.70;;;20.30;77.70;;;;;;4979401;28;20203;-65
2024/02/22 07:38:36;;;;;;;1.02;0.70;;;20.40;77.70;;;;;;4996438;28;20216;-65
2024/02/22 07:41:15;;;;;;;1.00;0.80;;;20.40;78.00;;;;;;5000403;28;20184;-66
2024/02/22 07:43:42;;;;;;;1.10;0.70;;;20.40;77.90;;;;;;5004249;28;20196;-65
2024/02/22 07:46:13;;;;;;;0.90;0.70;;;20.40;77.90;;;;;;5002650;28;20631;-65
2024/02/22 07:48:42;;;;;;;1.05;0.90;;;20.40;78.70;;;;;;4996986;28;20207;-66
2024/02/22 07:51:10;;;;;;;1.20;0.80;;;20.40;78.00;;;;;;4999388;28;20202;-65
2024/02/22 07:53:42;;;;;;;1.00;0.73;;;20.40;78.10;;;;;;5001742;28;20666;-66
2024/02/22 07:56:11;;;;;;;1.10;0.80;;;20.50;78.10;;;;;;5001016;28;20192;-65
2024/02/22 07:58:49;;;;;;;2.60;1.00;;;20.50;78.20;;;;;;4990801;28;20224;-72
2024/02/22 08:01:21;;;;;;;1.10;0.70;;;20.60;78.60;;;;;;5004281;28;20194;-69
2024/02/22 08:03:57;;;;;;;2.38;0.60;;;20.60;78.50;;;;;;4999397;28;21359;-59
2024/02/22 08:06:29;;;;;;;0.88;0.63;;;20.60;78.50;;;;;;4995544;28;20204;-68
2024/02/22 08:08:59;;;;;;;0.90;0.63;;;20.70;78.80;;;;;;4996085;28;20652;-67
2024/02/22 08:11:28;;;;;;;0.90;0.68;;;20.70;79.10;;;;;;4997696;28;20200;-67
2024/02/22 08:14:00;;;;;;;1.55;0.70;;;20.70;78.80;;;;;;4996833;28;20238;-68
2024/02/22 08:16:29;;;;;;;0.90;0.70;;;20.70;79.00;;;;;;4998392;28;20212;-67
2024/02/22 08:18:57;;;;;;;1.00;0.60;;;20.70;79.00;;;;;;4988240;28;20208;-68
2024/02/22 08:21:33;;;;;;;1.10;0.70;;;20.70;79.20;;;;;;4991064;28;20208;-67
2024/02/22 08:24:02;;;;;;;3.55;0.93;;;20.70;78.60;;;;;;4990299;28;20556;-67
2024/02/22 08:26:29;;;;;;;1.00;0.80;;;20.80;78.80;;;;;;4992992;28;20195;-67
2024/02/22 08:29:09;;;;;;;1.20;0.75;;;20.70;78.70;;;;;;4990446;28;20564;-68
2024/02/22 08:31:40;;;;;;;0.90;0.80;;;20.80;78.80;;;;;;4989491;28;20278;-67
2024/02/22 08:34:12;;;;;;;2.65;0.75;;;20.80;78.80;;;;;;4989014;28;20415;-68
2024/02/22 08:36:43;;;;;;;1.00;0.70;;;20.80;78.70;;;;;;5002603;28;20192;-68
2024/02/22 08:39:16;;;;;;;1.20;1.10;;;20.80;78.70;;;;;;5000387;28;20223;-68
2024/02/22 08:41:43;;;;;;;1.10;0.77;;;20.80;78.70;;;;;;4998892;28;20713;-67
2024/02/22 08:44:14;;;;;;;1.00;0.70;;;20.80;78.70;;;;;;4999935;28;20270;-67
2024/02/22 08:46:42;;;;;;;1.20;0.80;;;20.90;78.70;;;;;;4997711;28;20576;-66
2024/02/22 08:49:13;;;;;;;0.88;0.60;;;20.80;78.50;;;;;;4998183;28;20216;-67
2024/02/22 08:51:44;;;;;;;0.90;0.60;;;20.90;79.40;;;;;;5000860;28;20192;-67
2024/02/22 08:54:14;;;;;;;1.80;0.98;;;20.90;78.40;;;;;;4996743;28;20409;-68
2024/02/22 08:56:45;;;;;;;0.90;0.70;;;20.90;78.60;;;;;;5002944;28;20203;-67
2024/02/22 08:59:15;;;;;;;0.90;0.70;;;20.90;78.50;;;;;;5000160;28;20270;-69
2024/02/22 09:01:41;;;;;;;1.23;0.77;;;20.90;78.40;;;;;;4996394;28;20626;-68
2024/02/22 09:04:13;;;;;;;0.90;0.70;;;20.90;78.40;;;;;;5001840;28;20197;-68
2024/02/22 09:06:45;;;;;;;0.80;0.60;;;20.90;78.40;;;;;;4999319;28;20207;-67
2024/02/22 09:09:14;;;;;;;1.00;0.68;;;20.90;78.30;;;;;;5001355;28;20195;-68
2024/02/22 09:11:59;;;;;;;1.07;0.73;;;20.90;78.40;;;;;;4996381;28;20806;-66
2024/02/22 09:14:30;;;;;;;1.10;0.80;;;20.90;78.40;;;;;;5001795;28;20477;-68
2024/02/22 09:17:00;;;;;;;0.90;0.70;;;20.90;78.20;;;;;;5008307;28;20650;-67
2024/02/22 09:19:32;;;;;;;0.90;0.60;;;20.90;78.30;;;;;;5007890;28;20285;-66
2024/02/22 09:22:00;;;;;;;1.10;0.60;;;21.00;78.30;;;;;;5006310;28;20275;-68
2024/02/22 09:24:44;;;;;;;1.15;0.80;;;21.00;78.30;;;;;;5011126;28;20672;-67
2024/02/22 09:27:12;;;;;;;0.95;0.70;;;21.00;78.20;;;;;;5002572;28;20331;-68
2024/02/22 09:29:42;;;;;;;1.42;0.70;;;21.00;78.20;;;;;;5000075;28;20223;-67
2024/02/22 09:32:10;;;;;;;1.10;0.80;;;21.00;78.20;;;;;;5009370;28;20205;-68
2024/02/22 09:34:43;;;;;;;1.75;0.80;;;21.00;78.20;;;;;;5004930;28;22105;-67
2024/02/22 09:37:29;;;;;;;1.05;0.60;;;21.00;78.10;;;;;;5008880;28;20192;-67
2024/02/22 09:40:04;;;;;;;1.00;0.70;;;21.00;78.10;;;;;;5005340;28;20212;-68
2024/02/22 09:42:31;;;;;;;1.00;0.65;;;21.00;78.10;;;;;;5004599;28;20817;-67
2024/02/22 09:45:02;;;;;;;1.38;0.80;;;21.00;78.10;;;;;;5009259;28;20409;-67
2024/02/22 09:47:41;;;;;;;;;;;;;;;;;;;;;
2024/02/22 09:50:14;;;;;;;1.45;0.70;;;21.10;78.20;;;;;;5003055;28;20212;-66
2024/02/22 09:52:49;;;;;;;1.52;0.60;;;21.10;78.30;;;;;;5006481;28;20522;-64
2024/02/22 09:55:17;;;;;;;1.00;0.77;;;21.10;78.40;;;;;;5009735;28;20230;-64
2024/02/22 09:57:43;;;;;;;1.30;1.10;;;21.10;78.60;;;;;;5008067;28;20192;-62
2024/02/22 10:00:17;;;;;;;0.80;0.60;;;21.10;79.00;;;;;;5004882;28;20223;-63
2024/02/22 10:02:55;;;;;;;1.30;0.60;;;21.20;79.00;;;;;;5000301;28;20196;-64
2024/02/22 10:05:41;;;;;;;1.00;0.70;;;21.20;79.40;;;;;;4995830;28;20297;-59
2024/02/22 10:08:13;;;;;;;1.27;0.70;;;21.20;79.60;;;;;;5007219;28;20191;-64
2024/02/22 10:10:40;;;;;;;1.95;0.70;;;21.20;79.60;;;;;;5003090;28;20718;-64
2024/02/22 10:13:28;;;;;;;0.90;0.70;;;21.30;79.60;;;;;;5005114;28;20204;-63
2024/02/22 10:15:57;;;;;;;0.90;0.60;;;21.30;79.80;;;;;;5003647;28;20540;-63
2024/02/22 10:18:28;;;;;;;0.90;0.70;;;21.30;79.90;;;;;;5008037;28;20996;-64
2024/02/22 10:20:57;;;;;;;0.98;0.68;;;21.30;79.90;;;;;;5002376;28;20296;-65
2024/02/22 10:23:29;;;;;;;1.40;0.70;;;21.30;80.00;;;;;;4996329;28;20214;-64
2024/02/22 10:26:12;;;;;;;0.80;0.60;;;21.40;80.40;;;;;;5002916;28;20215;-66
2024/02/22 10:28:43;;;;;;;0.80;0.60;;;21.40;80.10;;;;;;5001784;28;20188;-63
2024/02/22 10:31:22;;;;;;;1.40;0.80;;;21.40;80.10;;;;;;4993109;28;21225;-66
2024/02/22 10:33:53;;;;;;;1.58;0.80;;;21.40;80.20;;;;;;5003598;28;20740;-63
2024/02/22 10:36:24;;;;;;;0.90;0.60;;;21.50;80.30;;;;;;4995563;28;20255;-66
2024/02/22 10:39:02;;;;;;;0.90;0.68;;;21.50;80.30;;;;;;4984223;28;21007;-65
2024/02/22 10:41:50;;;;;;;0.90;0.65;;;21.50;80.80;;;;;;4997395;28;20208;-65
2024/02/22 10:44:27;;;;;;;1.13;0.90;;;21.50;80.10;;;;;;4997275;28;22207;-69
2024/02/22 10:46:54;;;;;;;0.90;0.60;;;21.50;80.10;;;;;;4993238;28;21040;-67
2024/02/22 10:49:25;;;;;;;1.40;0.75;;;21.60;80.00;;;;;;4991935;28;20474;-68
2024/02/22 10:52:10;;;;;;;1.10;0.80;;;21.50;79.20;;;;;;5002027;28;20195;-67
2024/02/22 10:54:41;;;;;;;1.30;0.80;;;21.50;78.80;;;;;;4996472;28;20204;-67
2024/02/22 10:57:11;;;;;;;0.90;0.80;;;21.50;78.50;;;;;;4997613;28;20451;-66
2024/02/22 10:59:45;;;;;;;1.10;0.80;;;21.50;78.80;;;;;;5006283;28;20227;-66
2024/02/22 11:02:16;;;;;;;0.93;0.65;;;21.50;78.50;;;;;;5004942;28;20462;-66
2024/02/22 11:04:43;;;;;;;0.95;0.73;;;21.60;78.70;;;;;;5004200;28;20204;-67
2024/02/22 11:07:35;;;;;;;1.00;0.70;;;21.60;78.60;;;;;;5002156;28;20193;-67
2024/02/22 11:10:11;;;;;;;1.13;0.70;;;21.60;78.50;;;;;;5007031;28;20458;-66
2024/02/22 11:12:47;;;;;;;1.00;0.70;;;21.60;78.40;;;;;;4997946;28;20997;-67
2024/02/22 11:15:25;;;;;;;1.00;0.80;;;21.60;78.30;;;;;;5004048;28;20601;-66
2024/02/22 11:17:58;;;;;;;1.00;0.60;;;21.60;78.20;;;;;;5001852;28;20991;-67
2024/02/22 11:20:42;;;;;;;1.43;0.70;;;21.70;78.30;;;;;;5004509;28;20624;-67
2024/02/22 11:23:22;;;;;;;1.30;0.80;;;21.70;78.30;;;;;;4987521;28;20458;-67
2024/02/22 11:25:52;;;;;;;0.98;0.80;;;21.70;78.30;;;;;;4988663;28;20199;-67
2024/02/22 11:28:21;;;;;;;2.00;0.80;;;21.70;78.20;;;;;;4995584;28;20196;-66
2024/02/22 11:30:56;;;;;;;1.00;0.80;;;21.70;78.10;;;;;;4991338;28;20938;-66
2024/02/22 11:33:29;;;;;;;1.10;0.70;;;21.70;78.00;;;;;;4999433;28;20454;-65
2024/02/22 11:36:00;;;;;;;0.90;0.70;;;21.80;78.10;;;;;;4983183;28;20596;-69
2024/02/22 11:38:36;;;;;;;1.10;0.70;;;21.70;78.00;;;;;;4787399;28;23214;-68
2024/02/22 11:41:12;;;;;;;1.10;0.60;;;21.80;78.20;;;;;;4751125;28;26931;-67
2024/02/22 11:43:40;;;;;;;1.13;0.80;;;21.80;78.20;;;;;;4774060;28;20584;-67
2024/02/22 11:46:23;;;;;;;1.20;0.77;;;21.80;78.20;;;;;;4777604;28;20483;-65
2024/02/22 11:48:55;;;;;;;0.93;0.60;;;21.80;78.30;;;;;;4785253;28;21125;-65
2024/02/22 11:51:25;;;;;;;0.93;0.70;;;21.80;78.30;;;;;;4768292;28;20693;-67
2024/02/22 11:53:57;;;;;;;0.90;0.60;;;21.80;78.30;;;;;;4777666;28;20473;-67
2024/02/22 11:56:25;;;;;;;0.90;0.60;;;21.80;78.40;;;;;;4866478;28;22339;-66
2024/02/22 11:58:59;;;;;;;0.90;0.60;;;21.90;78.50;;;;;;5005404;28;20471;-66
2024/02/22 12:01:35;;;;;;;1.10;0.70;;;21.90;78.50;;;;;;5000840;28;20455;-63
2024/02/22 12:04:08;;;;;;;1.37;0.73;;;21.90;78.50;;;;;;5002305;28;20550;-66
2024/02/22 12:06:39;;;;;;;1.00;0.80;;;21.90;78.60;;;;;;5002039;28;20458;-64
2024/02/22 12:09:10;;;;;;;1.20;0.60;;;22.00;78.80;;;;;;5003395;28;20459;-64
2024/02/22 12:11:46;;;;;;;2.83;0.70;;;22.00;78.80;;;;;;5002833;28;20471;-65
2024/02/22 12:14:18;;;;;;;1.20;0.80;;;22.00;78.70;;;;;;4999079;28;20463;-66
2024/02/22 12:16:47;;;;;;;1.37;0.73;;;22.00;78.70;;;;;;5001580;28;20458;-66
2024/02/22 12:19:16;;;;;;;3.30;0.80;;;22.00;78.70;;;;;;4996567;28;20511;-64
2024/02/22 12:21:49;;;;;;;1.10;0.70;;;22.00;78.70;;;;;;5000845;28;20458;-63
2024/02/22 12:24:24;;;;;;;1.30;1.00;;;22.10;78.80;;;;;;5006647;28;20463;-65
2024/02/22 12:26:56;;;;;;;1.40;0.93;;;22.10;78.80;;;;;;4990900;28;20470;-63
2024/02/22 12:29:36;;;;;;;1.40;0.97;;;22.10;78.70;;;;;;5000486;28;21164;-60
2024/02/22 12:32:08;;;;;;;1.07;0.70;;;22.10;78.70;;;;;;4994367;28;20975;-61
2024/02/22 12:34:47;;;;;;;9.53;0.80;;;22.10;78.60;;;;;;4995330;28;20677;-63
2024/02/22 12:37:16;;;;;;;0.90;0.70;;;22.20;78.80;;;;;;4997605;28;20820;-63
2024/02/22 12:40:11;;;;;;;0.97;0.73;;;22.20;78.70;;;;;;5001737;28;20479;-65
2024/02/22 12:42:38;;;;;;;0.80;0.60;;;22.20;78.70;;;;;;5003446;28;20594;-65
2024/02/22 12:45:15;;;;;;;0.80;0.60;;;22.20;78.60;;;;;;5000512;28;20458;-64
2024/02/22 12:47:42;;;;;;;1.43;0.80;;;22.20;78.60;;;;;;5002559;28;20471;-65
2024/02/22 12:50:13;;;;;;;1.00;0.70;;;22.20;78.70;;;;;;5005810;28;20489;-64
2024/02/22 12:52:44;;;;;;;1.60;0.67;;;22.20;78.60;;;;;;5006724;28;20463;-63
2024/02/22 12:55:20;;;;;;;1.00;0.63;;;22.20;78.60;;;;;;5008781;28;20463;-65
2024/02/22 12:57:52;;;;;;;1.87;0.60;;;22.20;78.60;;;;;;4995860;28;20462;-64
2024/02/22 13:00:29;;;;;;;1.60;0.70;;;22.20;78.60;;;;;;5005978;28;20475;-64
2024/02/22 13:03:11;;;;;;;0.90;0.60;;;22.20;78.60;;;;;;4993044;28;20458;-64
2024/02/22 13:05:48;;;;;;;1.00;0.70;;;22.20;78.50;;;;;;4981289;28;20997;-68
2024/02/22 13:08:35;;;;;;;0.90;0.70;;;22.30;78.70;;;;;;4983813;28;20461;-65
2024/02/22 13:11:04;;;;;;;1.10;0.73;;;22.30;78.80;;;;;;5008174;28;21039;-65
2024/02/22 13:16:47;;;;;;;0.90;0.70;;;22.30;78.60;;;;;;5002029;28;21033;-64
2024/02/22 13:19:14;;;;;;;0.90;0.60;;;22.30;78.60;;;;;;5000415;28;20462;-65
2024/02/22 13:21:43;;;;;;;3.67;1.00;;;22.30;78.60;;;;;;5005868;28;21189;-64
2024/02/22 13:24:09;;;;;;;13.33;1.23;;;22.30;77.90;;;;;;5007258;28;20984;-64
2024/02/22 13:26:41;;;;;;;2.07;0.70;;;22.10;77.10;;;;;;5003857;28;20469;-64